Time;durP1;ratioP1;P1;durP2;ratioP2;P2;SDS_P1;SDS_P2;PMS_P1;PMS_P2;Temp;Humidity;BMP_temperature;BMP_pressure;BME280_temperature;BME280_humidity;BME280_pressure;Samples;Min_cycle;Max_cycle;Signal;HPM_P1;HPM_P2
2022/09/18 00:00:38;;;;;;;1.25;0.70;;;;;;;;;;5155560;27;20102;-58
2022/09/18 00:03:04;;;;;;;3.40;0.82;;;;;;;;;;5155590;27;20019;-59
2022/09/18 00:05:30;;;;;;;2.58;1.10;;;;;;;;;;5155539;27;20035;-58
2022/09/18 00:07:56;;;;;;;1.90;1.10;;;;;;;;;;5155220;27;20029;-58
2022/09/18 00:10:22;;;;;;;2.67;1.00;;;;;;;;;;5155185;27;20057;-58
2022/09/18 00:12:51;;;;;;;2.20;1.55;;;;;;;;;;5154173;27;20023;-58
2022/09/18 00:15:17;;;;;;;2.00;1.05;;;;;;;;;;5155436;27;20050;-58
2022/09/18 00:17:43;;;;;;;2.90;1.23;;;;;;;;;;5155105;27;20031;-58
2022/09/18 00:20:09;;;;;;;1.90;1.35;;;;;;;;;;5155931;27;20071;-58
2022/09/18 00:22:35;;;;;;;3.80;1.20;;;;;;;;;;5155343;27;20030;-58
2022/09/18 00:25:01;;;;;;;4.15;1.00;;;;;;;;;;5159378;27;20109;-57
2022/09/18 00:27:27;;;;;;;1.33;0.65;;;;;;;;;;5159082;27;20054;-58
2022/09/18 00:29:53;;;;;;;6.90;1.48;;;;;;;;;;5158958;27;20137;-58
2022/09/18 00:32:19;;;;;;;5.10;1.92;;;;;;;;;;5159217;27;20364;-58
2022/09/18 00:34:45;;;;;;;1.90;1.00;;;;;;;;;;5159481;27;20444;-58
2022/09/18 00:37:11;;;;;;;1.50;0.93;;;;;;;;;;5158851;27;20521;-59
2022/09/18 00:39:37;;;;;;;4.28;1.77;;;;;;;;;;5158777;27;20047;-58
2022/09/18 00:42:03;;;;;;;3.50;1.50;;;;;;;;;;5159010;27;20079;-58
2022/09/18 00:44:31;;;;;;;1.60;0.77;;;;;;;;;;5159583;27;20026;-58
2022/09/18 00:47:01;;;;;;;4.57;1.33;;;;;;;;;;5159158;27;20441;-59
2022/09/18 00:49:27;;;;;;;2.08;1.08;;;;;;;;;;5158578;27;20019;-58
2022/09/18 00:51:54;;;;;;;2.40;1.17;;;;;;;;;;5158596;27;20039;-58
2022/09/18 00:54:37;;;;;;;4.55;1.55;;;;;;;;;;5158776;27;20051;-58
2022/09/18 00:57:15;;;;;;;5.82;1.08;;;;;;;;;;5158626;27;20353;-59
2022/09/18 00:59:43;;;;;;;6.97;1.13;;;;;;;;;;5159037;27;20023;-58
2022/09/18 01:02:09;;;;;;;7.75;1.70;;;;;;;;;;5158873;27;20018;-58
2022/09/18 01:04:35;;;;;;;2.35;1.23;;;;;;;;;;5158703;27;20029;-58
2022/09/18 01:07:06;;;;;;;2.50;1.27;;;;;;;;;;5158327;27;20034;-58
2022/09/18 01:09:41;;;;;;;1.63;1.02;;;;;;;;;;5158325;27;20023;-58
2022/09/18 01:12:25;;;;;;;2.50;1.88;;;;;;;;;;5158749;27;20397;-58
2022/09/18 01:14:56;;;;;;;2.80;1.02;;;;;;;;;;5158681;27;20106;-58
2022/09/18 01:17:22;;;;;;;;;;;;;;;;;;5158918;27;20040;-58
2022/09/18 01:20:06;;;;;;;1.48;1.02;;;;;;;;;;5158050;27;19907;-59
2022/09/18 01:22:33;;;;;;;2.15;1.02;;;;;;;;;;5158070;27;20027;-58
2022/09/18 01:25:09;;;;;;;3.28;1.90;;;;;;;;;;5158580;27;20398;-58
2022/09/18 01:27:44;;;;;;;3.45;1.33;;;;;;;;;;5157992;27;20044;-58
2022/09/18 01:30:11;;;;;;;4.43;1.67;;;;;;;;;;5158222;27;20022;-59
2022/09/18 01:32:43;;;;;;;2.50;0.98;;;;;;;;;;5157516;27;20461;-58
2022/09/18 01:35:27;;;;;;;3.50;1.40;;;;;;;;;;5157939;27;20030;-58
2022/09/18 01:37:54;;;;;;;3.58;1.23;;;;;;;;;;5158229;27;20041;-58
2022/09/18 01:40:25;;;;;;;1.80;0.85;;;;;;;;;;5157992;27;20022;-58
2022/09/18 01:42:52;;;;;;;1.88;1.20;;;;;;;;;;5157968;27;20031;-58
2022/09/18 01:45:22;;;;;;;3.78;1.27;;;;;;;;;;5158403;27;20353;-58
2022/09/18 01:47:51;;;;;;;2.67;1.52;;;;;;;;;;5157562;27;20460;-57
2022/09/18 01:50:17;;;;;;;1.77;1.10;;;;;;;;;;5157245;27;20136;-58
2022/09/18 01:52:50;;;;;;;2.15;1.42;;;;;;;;;;5157309;27;20029;-58
2022/09/18 01:55:18;;;;;;;2.90;1.67;;;;;;;;;;5157349;27;20023;-58
2022/09/18 01:58:05;;;;;;;2.70;1.48;;;;;;;;;;5157342;27;20019;-58
2022/09/18 02:00:31;;;;;;;3.25;1.30;;;;;;;;;;5156763;27;20039;-58
2022/09/18 02:03:00;;;;;;;2.28;1.13;;;;;;;;;;5157175;27;20049;-58
2022/09/18 02:05:29;;;;;;;1.67;1.10;;;;;;;;;;5157432;27;20038;-58
2022/09/18 02:08:01;;;;;;;2.47;0.95;;;;;;;;;;5157410;27;20026;-58
2022/09/18 02:10:28;;;;;;;1.70;0.88;;;;;;;;;;5157097;27;20093;-58
2022/09/18 02:12:55;;;;;;;2.90;1.25;;;;;;;;;;5157579;27;20061;-59
2022/09/18 02:15:23;;;;;;;1.45;0.95;;;;;;;;;;5157293;27;20058;-58
2022/09/18 02:17:53;;;;;;;2.63;0.90;;;;;;;;;;5156969;27;20075;-58
2022/09/18 02:20:21;;;;;;;1.80;1.10;;;;;;;;;;5157273;27;20029;-58
2022/09/18 02:22:49;;;;;;;4.40;1.35;;;;;;;;;;5156858;27;20436;-58
2022/09/18 02:25:18;;;;;;;3.22;1.05;;;;;;;;;;5156167;27;20062;-59
2022/09/18 02:27:44;;;;;;;2.78;0.95;;;;;;;;;;5156666;27;20023;-58
2022/09/18 02:30:11;;;;;;;2.03;1.05;;;;;;;;;;5156671;27;20090;-59
2022/09/18 02:32:38;;;;;;;2.75;0.80;;;;;;;;;;5156395;27;20022;-58
2022/09/18 02:35:05;;;;;;;0.80;0.50;;;;;;;;;;5157085;27;20047;-58
2022/09/18 02:37:43;;;;;;;2.05;0.88;;;;;;;;;;5157394;27;20495;-58
2022/09/18 02:40:18;;;;;;;2.97;0.90;;;;;;;;;;5156483;27;20045;-59
2022/09/18 02:43:01;;;;;;;2.63;1.20;;;;;;;;;;5156431;27;20457;-59
2022/09/18 02:45:27;;;;;;;1.00;0.57;;;;;;;;;;5156091;27;20038;-58
2022/09/18 02:47:59;;;;;;;4.10;1.15;;;;;;;;;;5156105;27;20027;-58
2022/09/18 02:50:24;;;;;;;3.10;0.82;;;;;;;;;;5156283;27;20364;-59
2022/09/18 02:53:03;;;;;;;3.58;1.35;;;;;;;;;;5156446;27;20026;-58
2022/09/18 02:55:33;;;;;;;2.45;1.02;;;;;;;;;;5156668;27;20031;-58
2022/09/18 02:58:01;;;;;;;2.13;1.23;;;;;;;;;;5156143;27;20398;-58
2022/09/18 03:00:28;;;;;;;2.55;0.80;;;;;;;;;;5156055;27;20563;-58
2022/09/18 03:02:58;;;;;;;1.38;0.77;;;;;;;;;;5155710;27;20458;-58
2022/09/18 03:05:25;;;;;;;5.63;2.22;;;;;;;;;;5156337;27;20030;-59
2022/09/18 03:07:51;;;;;;;5.20;1.77;;;;;;;;;;5156021;27;20022;-58
2022/09/18 03:10:17;;;;;;;1.98;1.10;;;;;;;;;;5155582;27;20049;-58
2022/09/18 03:12:43;;;;;;;1.05;0.50;;;;;;;;;;5156167;27;20029;-59
2022/09/18 03:15:10;;;;;;;4.00;1.40;;;;;;;;;;5155815;27;20062;-58
2022/09/18 03:17:36;;;;;;;7.13;1.00;;;;;;;;;;5155779;27;20026;-59
2022/09/18 03:20:03;;;;;;;2.53;0.90;;;;;;;;;;5155833;27;20106;-59
2022/09/18 03:22:29;;;;;;;5.40;1.00;;;;;;;;;;5156492;27;20344;-58
2022/09/18 03:24:55;;;;;;;2.80;0.90;;;;;;;;;;5156043;27;20030;-59
2022/09/18 03:27:21;;;;;;;3.97;1.27;;;;;;;;;;5156274;27;20498;-58
2022/09/18 03:29:47;;;;;;;1.33;0.82;;;;;;;;;;5155618;27;20061;-58
2022/09/18 03:32:13;;;;;;;4.30;1.25;;;;;;;;;;5155924;27;20038;-58
2022/09/18 03:34:39;;;;;;;3.42;0.90;;;;;;;;;;5155888;27;20034;-58
2022/09/18 03:37:05;;;;;;;4.93;1.98;;;;;;;;;;5156085;27;20023;-59
2022/09/18 03:39:31;;;;;;;3.25;1.30;;;;;;;;;;5155882;27;20463;-59
2022/09/18 03:41:57;;;;;;;1.65;1.00;;;;;;;;;;5155555;27;20367;-58
2022/09/18 03:44:23;;;;;;;2.78;1.10;;;;;;;;;;5155559;27;20381;-59
2022/09/18 03:46:49;;;;;;;2.42;0.60;;;;;;;;;;5155434;27;20034;-58
2022/09/18 03:49:15;;;;;;;4.72;1.27;;;;;;;;;;5155949;27;20026;-59
2022/09/18 03:51:41;;;;;;;2.72;1.65;;;;;;;;;;5155257;27;20472;-58
2022/09/18 03:54:07;;;;;;;8.40;1.05;;;;;;;;;;5155700;27;20022;-59
2022/09/18 03:56:33;;;;;;;5.07;0.90;;;;;;;;;;5156038;27;20026;-58
2022/09/18 03:58:58;;;;;;;5.63;1.05;;;;;;;;;;5159652;27;20034;-59
2022/09/18 04:01:24;;;;;;;5.43;1.13;;;;;;;;;;5159965;27;20023;-59
2022/09/18 04:03:50;;;;;;;2.20;0.90;;;;;;;;;;5160190;27;20453;-58
2022/09/18 04:06:16;;;;;;;4.82;1.20;;;;;;;;;;5159487;27;20025;-58
2022/09/18 04:08:42;;;;;;;5.82;1.15;;;;;;;;;;5159789;27;20341;-59
2022/09/18 04:11:08;;;;;;;1.38;0.80;;;;;;;;;;5159408;27;20528;-58
2022/09/18 04:13:34;;;;;;;1.83;0.98;;;;;;;;;;5159692;27;20496;-59
2022/09/18 04:16:00;;;;;;;3.17;1.60;;;;;;;;;;5159226;27;20110;-57
2022/09/18 04:18:26;;;;;;;2.38;1.20;;;;;;;;;;5159261;27;20412;-59
2022/09/18 04:20:52;;;;;;;3.42;1.50;;;;;;;;;;5159173;27;20349;-59
2022/09/18 04:23:19;;;;;;;3.08;1.20;;;;;;;;;;5159790;27;20023;-59
2022/09/18 04:25:45;;;;;;;4.70;1.13;;;;;;;;;;5159102;27;20079;-59
2022/09/18 04:28:12;;;;;;;1.90;1.17;;;;;;;;;;5158747;27;20476;-59
2022/09/18 04:30:38;;;;;;;2.85;1.63;;;;;;;;;;5159543;27;20019;-58
2022/09/18 04:33:04;;;;;;;2.60;1.08;;;;;;;;;;5157665;27;20083;-58
2022/09/18 04:35:30;;;;;;;1.38;0.82;;;;;;;;;;5158854;27;20109;-59
2022/09/18 04:37:56;;;;;;;3.45;1.17;;;;;;;;;;5159424;27;20083;-58
2022/09/18 04:40:22;;;;;;;2.90;1.30;;;;;;;;;;5159112;27;20373;-58
2022/09/18 04:42:48;;;;;;;3.15;0.85;;;;;;;;;;5159595;27;20026;-59
2022/09/18 04:45:14;;;;;;;1.50;0.90;;;;;;;;;;5158678;27;20015;-58
2022/09/18 04:47:40;;;;;;;3.20;1.15;;;;;;;;;;5158676;27;20077;-59
2022/09/18 04:50:07;;;;;;;2.78;1.13;;;;;;;;;;5158963;27;20023;-58
2022/09/18 04:52:34;;;;;;;2.03;0.68;;;;;;;;;;5157266;27;20042;-57
2022/09/18 04:55:00;;;;;;;2.20;0.98;;;;;;;;;;5158822;27;20452;-58
2022/09/18 04:57:26;;;;;;;2.40;0.90;;;;;;;;;;5158176;27;20037;-58
2022/09/18 04:59:52;;;;;;;1.85;1.00;;;;;;;;;;5158790;27;20436;-58
2022/09/18 05:02:18;;;;;;;3.10;0.88;;;;;;;;;;5158467;27;20433;-58
2022/09/18 05:04:44;;;;;;;3.00;1.45;;;;;;;;;;5159004;27;20405;-58
2022/09/18 05:07:10;;;;;;;2.05;1.20;;;;;;;;;;5158643;27;20074;-58
2022/09/18 05:09:36;;;;;;;2.13;1.00;;;;;;;;;;5157616;27;20086;-59
2022/09/18 05:12:02;;;;;;;2.42;1.27;;;;;;;;;;5158560;27;20101;-59
2022/09/18 05:14:28;;;;;;;2.75;1.17;;;;;;;;;;5158902;27;20101;-58
2022/09/18 05:16:55;;;;;;;1.58;0.95;;;;;;;;;;5158151;27;20118;-59
2022/09/18 05:19:21;;;;;;;1.55;0.93;;;;;;;;;;5158356;27;20393;-59
2022/09/18 05:21:50;;;;;;;2.85;1.00;;;;;;;;;;5158102;27;20031;-59
2022/09/18 05:24:16;;;;;;;1.73;1.13;;;;;;;;;;5158378;27;20023;-59
2022/09/18 05:26:43;;;;;;;1.90;1.20;;;;;;;;;;5157953;27;20034;-58
2022/09/18 05:29:09;;;;;;;2.80;0.90;;;;;;;;;;5157942;27;20027;-57
2022/09/18 05:31:35;;;;;;;3.50;1.20;;;;;;;;;;5158449;27;20409;-57
2022/09/18 05:34:01;;;;;;;1.63;1.10;;;;;;;;;;5157844;27;20019;-58
2022/09/18 05:36:27;;;;;;;1.42;1.08;;;;;;;;;;5157728;27;20026;-59
2022/09/18 05:38:53;;;;;;;2.67;1.00;;;;;;;;;;5157724;27;20034;-58
2022/09/18 05:41:19;;;;;;;2.58;1.13;;;;;;;;;;5157686;27;20030;-59
2022/09/18 05:43:45;;;;;;;1.83;1.20;;;;;;;;;;5158192;27;20045;-59
2022/09/18 05:46:11;;;;;;;2.15;1.13;;;;;;;;;;5157239;27;20538;-58
2022/09/18 05:48:37;;;;;;;5.63;2.85;;;;;;;;;;5157848;27;20402;-58
2022/09/18 05:51:03;;;;;;;5.03;2.50;;;;;;;;;;5157766;27;20483;-59
2022/09/18 05:53:30;;;;;;;3.47;1.45;;;;;;;;;;5157367;27;20105;-59
2022/09/18 05:55:56;;;;;;;10.52;2.15;;;;;;;;;;5157293;27;20037;-58
2022/09/18 05:58:22;;;;;;;4.53;1.77;;;;;;;;;;5157636;27;20027;-58
2022/09/18 06:00:50;;;;;;;1.90;0.98;;;;;;;;;;5156052;27;20372;-59
2022/09/18 06:03:16;;;;;;;4.35;1.45;;;;;;;;;;5157247;27;20458;-59
2022/09/18 06:05:42;;;;;;;4.55;1.65;;;;;;;;;;5157760;27;20023;-59
2022/09/18 06:08:09;;;;;;;1.98;1.55;;;;;;;;;;5157071;27;20026;-59
2022/09/18 06:10:38;;;;;;;4.65;1.58;;;;;;;;;;5156740;27;20460;-58
2022/09/18 06:13:05;;;;;;;2.70;1.80;;;;;;;;;;5157006;27;20147;-58
2022/09/18 06:15:32;;;;;;;3.35;1.45;;;;;;;;;;5156853;27;20131;-59
2022/09/18 06:17:58;;;;;;;2.83;2.40;;;;;;;;;;5156911;27;20035;-59
2022/09/18 06:20:24;;;;;;;1.67;1.10;;;;;;;;;;5155989;27;20022;-58
2022/09/18 06:22:49;;;;;;;3.03;1.63;;;;;;;;;;5157122;27;20446;-58
2022/09/18 06:25:18;;;;;;;1.38;1.00;;;;;;;;;;5156853;27;20027;-59
2022/09/18 06:27:44;;;;;;;2.47;1.23;;;;;;;;;;5157250;27;20066;-58
2022/09/18 06:30:10;;;;;;;1.85;1.13;;;;;;;;;;5156717;27;20054;-59
2022/09/18 06:32:36;;;;;;;2.70;1.52;;;;;;;;;;5156695;27;20023;-59
2022/09/18 06:35:02;;;;;;;2.00;1.10;;;;;;;;;;5157123;27;20041;-59
2022/09/18 06:37:28;;;;;;;2.05;1.35;;;;;;;;;;5156308;27;20461;-58
2022/09/18 06:39:54;;;;;;;3.28;1.10;;;;;;;;;;5156288;27;20102;-59
2022/09/18 06:42:20;;;;;;;2.25;1.48;;;;;;;;;;5156445;27;20027;-58
2022/09/18 06:44:46;;;;;;;4.15;1.77;;;;;;;;;;5157076;27;20026;-59
2022/09/18 06:47:12;;;;;;;2.22;1.55;;;;;;;;;;5156653;27;20107;-58
2022/09/18 06:49:38;;;;;;;3.00;1.83;;;;;;;;;;5156827;27;20027;-59
2022/09/18 06:52:12;;;;;;;2.05;1.38;;;;;;;;;;5071349;28;20780;-56
2022/09/18 06:54:38;;;;;;;2.42;1.55;;;;;;;;;;5071494;28;20143;-56
2022/09/18 06:57:05;;;;;;;2.60;1.35;;;;;;;;;;5071071;28;20067;-56
2022/09/18 06:59:31;;;;;;;2.47;1.73;;;;;;;;;;5071115;28;20021;-56
2022/09/18 07:01:57;;;;;;;5.15;1.75;;;;;;;;;;5071339;28;20031;-58
2022/09/18 07:04:23;;;;;;;3.10;1.95;;;;;;;;;;5071522;28;20039;-59
2022/09/18 07:06:49;;;;;;;2.95;1.52;;;;;;;;;;5070707;28;20025;-59
2022/09/18 07:09:15;;;;;;;2.63;1.58;;;;;;;;;;5070944;28;20029;-58
2022/09/18 07:11:41;;;;;;;9.02;2.38;;;;;;;;;;5070758;28;20166;-58
2022/09/18 07:14:07;;;;;;;5.03;1.73;;;;;;;;;;5071453;28;20029;-59
2022/09/18 07:16:34;;;;;;;2.03;1.42;;;;;;;;;;5071313;28;20060;-58
2022/09/18 07:19:00;;;;;;;2.03;1.42;;;;;;;;;;5071292;28;20379;-58
2022/09/18 07:21:25;;;;;;;2.45;1.88;;;;;;;;;;5070679;28;20028;-62
2022/09/18 07:23:51;;;;;;;2.40;1.83;;;;;;;;;;5070962;28;20028;-58
2022/09/18 07:26:18;;;;;;;2.90;2.05;;;;;;;;;;5070516;28;20047;-58
2022/09/18 07:28:44;;;;;;;5.15;2.33;;;;;;;;;;5070838;28;20104;-57
2022/09/18 07:31:11;;;;;;;2.60;1.55;;;;;;;;;;5070982;28;20412;-58
2022/09/18 07:33:36;;;;;;;3.38;2.13;;;;;;;;;;5070741;28;20056;-58
2022/09/18 07:36:03;;;;;;;2.78;1.95;;;;;;;;;;5070679;28;20075;-59
2022/09/18 07:38:29;;;;;;;4.82;2.00;;;;;;;;;;5070393;28;20107;-58
2022/09/18 07:40:55;;;;;;;2.97;2.05;;;;;;;;;;5070312;28;20068;-58
2022/09/18 07:43:21;;;;;;;2.95;2.05;;;;;;;;;;5070290;28;20451;-59
2022/09/18 07:45:47;;;;;;;2.60;1.73;;;;;;;;;;5070474;28;20029;-58
2022/09/18 07:48:15;;;;;;;2.10;1.60;;;;;;;;;;5070102;28;20029;-59
2022/09/18 07:50:41;;;;;;;4.80;1.83;;;;;;;;;;5069746;28;20140;-59
2022/09/18 07:53:08;;;;;;;3.13;2.05;;;;;;;;;;5069870;28;20409;-57
2022/09/18 07:55:35;;;;;;;2.50;1.90;;;;;;;;;;5069893;28;20043;-58
2022/09/18 07:58:03;;;;;;;2.08;1.42;;;;;;;;;;5069784;28;20036;-59
2022/09/18 08:00:32;;;;;;;4.55;2.00;;;;;;;;;;5069802;28;20054;-58
2022/09/18 08:03:05;;;;;;;3.83;2.20;;;;;;;;;;5059712;28;20032;-58
2022/09/18 08:05:31;;;;;;;2.15;1.45;;;;;;;;;;5056621;28;20029;-59
2022/09/18 08:08:11;;;;;;;4.10;1.67;;;;;;;;;;5056537;28;20031;-59
2022/09/18 08:10:38;;;;;;;2.83;1.70;;;;;;;;;;5056726;28;20124;-58
2022/09/18 08:13:04;;;;;;;5.28;3.00;;;;;;;;;;5056384;28;20048;-59
2022/09/18 08:15:30;;;;;;;2.85;1.58;;;;;;;;;;5056663;28;20032;-58
2022/09/18 08:17:56;;;;;;;3.17;1.88;;;;;;;;;;5056322;28;20077;-58
2022/09/18 08:20:22;;;;;;;1.90;1.40;;;;;;;;;;5056244;28;20121;-58
2022/09/18 08:22:49;;;;;;;3.13;1.92;;;;;;;;;;5056795;28;20057;-58
2022/09/18 08:25:16;;;;;;;5.40;1.60;;;;;;;;;;5056762;28;20017;-58
2022/09/18 08:27:42;;;;;;;3.20;1.35;;;;;;;;;;5056704;28;20021;-58
2022/09/18 08:30:09;;;;;;;2.38;1.52;;;;;;;;;;5056531;28;20351;-58
2022/09/18 08:32:36;;;;;;;4.15;1.90;;;;;;;;;;5056085;28;20112;-58
2022/09/18 08:35:02;;;;;;;1.73;1.10;;;;;;;;;;5056497;28;20367;-58
2022/09/18 08:37:29;;;;;;;2.72;1.40;;;;;;;;;;5056468;28;20021;-58
2022/09/18 08:39:55;;;;;;;3.63;1.83;;;;;;;;;;5055854;28;20025;-56
2022/09/18 08:42:24;;;;;;;1.73;1.23;;;;;;;;;;5056477;28;20359;-56
2022/09/18 08:44:53;;;;;;;3.05;1.83;;;;;;;;;;5056395;28;20035;-57
2022/09/18 08:47:24;;;;;;;2.80;1.45;;;;;;;;;;5056129;28;20021;-57
2022/09/18 08:49:59;;;;;;;3.67;1.88;;;;;;;;;;5055974;28;20029;-57
2022/09/18 08:52:28;;;;;;;5.40;2.17;;;;;;;;;;5055623;28;20029;-57
2022/09/18 08:55:23;;;;;;;3.15;1.27;;;;;;;;;;5055637;28;20021;-61
2022/09/18 08:57:53;;;;;;;3.38;1.92;;;;;;;;;;5050486;28;20471;-57
2022/09/18 09:00:21;;;;;;;5.73;2.03;;;;;;;;;;5055887;28;20024;-56
2022/09/18 09:02:52;;;;;;;3.35;2.00;;;;;;;;;;5055353;28;20025;-57
2022/09/18 09:05:20;;;;;;;5.85;2.55;;;;;;;;;;5056082;28;20040;-57
2022/09/18 09:08:02;;;;;;;2.10;1.52;;;;;;;;;;5055950;28;20307;-57
2022/09/18 09:10:31;;;;;;;3.10;1.40;;;;;;;;;;5055238;28;20080;-57
2022/09/18 09:13:15;;;;;;;6.47;2.17;;;;;;;;;;5055579;28;20441;-57
2022/09/18 09:15:50;;;;;;;4.28;1.85;;;;;;;;;;5054743;28;20032;-57
2022/09/18 09:18:17;;;;;;;1.90;1.00;;;;;;;;;;5055421;28;20036;-57
2022/09/18 09:20:49;;;;;;;3.22;1.55;;;;;;;;;;5055162;28;20037;-57
2022/09/18 09:23:34;;;;;;;4.68;1.70;;;;;;;;;;5055626;28;20035;-57
2022/09/18 09:26:00;;;;;;;7.03;1.77;;;;;;;;;;5054561;28;20017;-57
2022/09/18 09:28:29;;;;;;;3.08;1.83;;;;;;;;;;5054964;28;20070;-57
2022/09/18 09:30:57;;;;;;;3.25;1.52;;;;;;;;;;5054871;28;20036;-56
2022/09/18 09:33:45;;;;;;;2.85;2.15;;;;;;;;;;5055560;28;20039;-56
2022/09/18 09:36:16;;;;;;;3.58;1.75;;;;;;;;;;5054919;28;20032;-56
2022/09/18 09:38:51;;;;;;;2.28;1.42;;;;;;;;;;5055068;28;20025;-57
2022/09/18 09:41:20;;;;;;;2.95;1.33;;;;;;;;;;5054663;28;20040;-57
2022/09/18 09:43:52;;;;;;;4.78;1.92;;;;;;;;;;5054776;28;20039;-57
2022/09/18 09:46:36;;;;;;;2.30;1.27;;;;;;;;;;5054984;28;20025;-59
2022/09/18 09:49:07;;;;;;;1.92;1.23;;;;;;;;;;5054295;28;20025;-57
2022/09/18 09:51:32;;;;;;;3.95;1.58;;;;;;;;;;5055241;28;20118;-57
2022/09/18 09:54:00;;;;;;;3.40;1.58;;;;;;;;;;5054485;28;20032;-57
2022/09/18 09:56:32;;;;;;;4.65;1.63;;;;;;;;;;5054474;28;20522;-58
2022/09/18 09:58:58;;;;;;;2.90;1.48;;;;;;;;;;5054380;28;20025;-57
2022/09/18 10:01:48;;;;;;;2.67;1.63;;;;;;;;;;5054445;28;20028;-58
2022/09/18 10:04:32;;;;;;;2.67;1.60;;;;;;;;;;5044496;28;20432;-57
2022/09/18 10:07:16;;;;;;;4.15;1.75;;;;;;;;;;5054279;28;20079;-56
2022/09/18 10:09:46;;;;;;;2.97;1.08;;;;;;;;;;5054566;28;20032;-57
2022/09/18 10:12:21;;;;;;;3.35;1.38;;;;;;;;;;5054190;28;20033;-57
2022/09/18 10:14:49;;;;;;;3.55;1.58;;;;;;;;;;5054218;28;20029;-57
2022/09/18 10:17:17;;;;;;;4.57;1.30;;;;;;;;;;5054161;28;20075;-57
2022/09/18 10:19:43;;;;;;;1.20;0.73;;;;;;;;;;5054054;28;20150;-57
2022/09/18 10:22:12;;;;;;;5.35;1.75;;;;;;;;;;5054007;28;20071;-57
2022/09/18 10:24:59;;;;;;;4.85;1.75;;;;;;;;;;5053817;28;20044;-58
2022/09/18 10:27:25;;;;;;;2.55;1.52;;;;;;;;;;5054718;28;20078;-58
2022/09/18 10:29:52;;;;;;;3.10;1.10;;;;;;;;;;5054197;28;20029;-58
2022/09/18 10:32:31;;;;;;;2.33;1.10;;;;;;;;;;5054425;28;20028;-57
2022/09/18 10:34:57;;;;;;;2.20;1.23;;;;;;;;;;5054304;28;20021;-58
2022/09/18 10:37:27;;;;;;;3.42;1.27;;;;;;;;;;5054537;28;20033;-58
2022/09/18 10:39:55;;;;;;;2.03;0.95;;;;;;;;;;5054563;28;20036;-57
2022/09/18 10:42:22;;;;;;;5.47;0.85;;;;;;;;;;5053778;28;20021;-58
2022/09/18 10:44:57;;;;;;;1.58;1.00;;;;;;;;;;5054138;28;20098;-58
2022/09/18 10:47:25;;;;;;;2.65;0.63;;;;;;;;;;5054227;28;20029;-58
2022/09/18 10:49:55;;;;;;;3.17;1.08;;;;;;;;;;5053741;28;20033;-59
2022/09/18 10:52:30;;;;;;;1.63;0.70;;;;;;;;;;5054250;28;20029;-58
2022/09/18 10:55:17;;;;;;;2.50;0.70;;;;;;;;;;5054260;28;20026;-58
2022/09/18 10:57:49;;;;;;;1.08;0.40;;;;;;;;;;5053133;28;20490;-58
2022/09/18 11:00:23;;;;;;;1.92;1.00;;;;;;;;;;5053615;28;20358;-58
2022/09/18 11:02:51;;;;;;;1.67;0.55;;;;;;;;;;5054329;28;20064;-58
2022/09/18 11:05:16;;;;;;;0.93;0.50;;;;;;;;;;5053923;28;20491;-58
2022/09/18 11:07:49;;;;;;;1.90;0.57;;;;;;;;;;5053516;28;20068;-58
2022/09/18 11:10:20;;;;;;;3.35;0.68;;;;;;;;;;5053492;28;20429;-58
2022/09/18 11:12:48;;;;;;;3.05;0.60;;;;;;;;;;5054153;28;20075;-57
2022/09/18 11:15:16;;;;;;;1.17;0.47;;;;;;;;;;5053516;28;20064;-58
2022/09/18 11:17:48;;;;;;;3.97;0.98;;;;;;;;;;5053192;28;20463;-58
2022/09/18 11:20:27;;;;;;;0.63;0.30;;;;;;;;;;5054361;28;20056;-58
2022/09/18 11:22:53;;;;;;;2.40;0.52;;;;;;;;;;5053452;28;20029;-57
2022/09/18 11:25:22;;;;;;;0.88;0.40;;;;;;;;;;5053532;28;20033;-58
2022/09/18 11:27:49;;;;;;;2.25;0.77;;;;;;;;;;5053829;28;20029;-57
2022/09/18 11:30:27;;;;;;;3.08;0.88;;;;;;;;;;5053723;28;20059;-58
2022/09/18 11:33:02;;;;;;;2.95;0.90;;;;;;;;;;5053789;28;20052;-58
2022/09/18 11:35:29;;;;;;;3.03;1.25;;;;;;;;;;5053286;28;20032;-58
2022/09/18 11:37:57;;;;;;;1.42;0.55;;;;;;;;;;5055203;28;20025;-58
2022/09/18 11:40:24;;;;;;;1.25;0.40;;;;;;;;;;5056978;28;20033;-58
2022/09/18 11:42:52;;;;;;;2.63;1.05;;;;;;;;;;5056707;28;20021;-58
2022/09/18 11:45:37;;;;;;;1.38;1.10;;;;;;;;;;5057508;28;20048;-58
2022/09/18 11:48:14;;;;;;;0.88;0.32;;;;;;;;;;5056878;28;20021;-58
2022/09/18 11:50:41;;;;;;;1.10;0.60;;;;;;;;;;5056776;28;20041;-58
2022/09/18 11:53:18;;;;;;;5.75;0.60;;;;;;;;;;5056702;28;20028;-58
2022/09/18 11:55:50;;;;;;;3.88;1.08;;;;;;;;;;5056679;28;20025;-58
2022/09/18 11:58:34;;;;;;;1.92;0.63;;;;;;;;;;5057294;28;20032;-58
2022/09/18 12:01:19;;;;;;;1.83;0.63;;;;;;;;;;5056573;28;20037;-58
2022/09/18 12:03:48;;;;;;;1.70;0.70;;;;;;;;;;5056588;28;20021;-57
2022/09/18 12:06:22;;;;;;;1.08;0.55;;;;;;;;;;5057011;28;20021;-57
2022/09/18 12:09:04;;;;;;;1.88;0.90;;;;;;;;;;5056727;28;20472;-57
2022/09/18 12:11:45;;;;;;;3.00;1.38;;;;;;;;;;5057123;28;20039;-58
2022/09/18 12:14:14;;;;;;;3.42;0.77;;;;;;;;;;5057005;28;20060;-58
2022/09/18 12:16:46;;;;;;;2.38;0.65;;;;;;;;;;5056353;28;20025;-58
2022/09/18 12:19:25;;;;;;;1.83;0.60;;;;;;;;;;5056319;28;20047;-58
2022/09/18 12:22:03;;;;;;;2.33;0.88;;;;;;;;;;5056271;28;20040;-58
